Time;durP1;ratioP1;P1;durP2;ratioP2;P2;SDS_P1;SDS_P2;PMS_P1;PMS_P2;Temp;Humidity;BMP_temperature;BMP_pressure;BME280_temperature;BME280_humidity;BME280_pressure;Samples;Min_cycle;Max_cycle;Signal;HPM_P1;HPM_P2
2023/06/21 00:00:01;;;;;;;;;;;;;;;15.07;73.22;101810.50;5092714;28;20295;-65
2023/06/21 00:02:28;;;;;;;;;;;;;;;15.07;72.35;101805.16;5092562;28;19919;-66
2023/06/21 00:04:55;;;;;;;;;;;;;;;15.07;72.14;101799.78;5092751;28;19966;-66
2023/06/21 00:07:23;;;;;;;;;;;;;;;15.05;71.47;101807.16;5092421;28;19920;-66
2023/06/21 00:09:48;;;;;;;;;;;;;;;15.04;71.92;101808.16;5124552;28;19927;-66
2023/06/21 00:12:14;;;;;;;;;;;;;;;15.04;71.57;101800.13;5093267;28;19920;-66
2023/06/21 00:14:39;;;;;;;;;;;;;;;15.05;71.36;101807.16;5092087;28;19920;-66
2023/06/21 00:17:04;;;;;;;;;;;;;;;15.04;71.15;101805.47;5092314;28;20448;-68
2023/06/21 00:19:30;;;;;;;;;;;;;;;15.06;71.04;101802.63;5092446;28;20387;-64
2023/06/21 00:21:57;;;;;;;;;;;;;;;15.07;70.31;101796.25;5093223;28;20360;-63
2023/06/21 00:24:23;;;;;;;;;;;;;;;15.06;71.86;101806.16;5092832;28;19920;-67
2023/06/21 00:26:48;;;;;;;;;;;;;;;15.05;70.63;101801.78;5094625;28;20386;-66
2023/06/21 00:29:13;;;;;;;;;;;;;;;15.05;71.08;101800.97;5091963;28;19920;-64
2023/06/21 00:31:39;;;;;;;;;;;;;;;15.00;71.74;101809.47;5094816;28;19924;-65
2023/06/21 00:34:04;;;;;;;;;;;;;;;14.96;71.99;101802.78;5095978;28;19927;-62
2023/06/21 00:36:29;;;;;;;;;;;;;;;14.91;71.19;101805.13;5095946;28;19920;-66
2023/06/21 00:38:54;;;;;;;;;;;;;;;14.88;71.72;101805.44;5096029;28;19920;-65
2023/06/21 00:41:20;;;;;;;;;;;;;;;14.85;73.41;101808.47;5097472;28;19920;-65
2023/06/21 00:43:45;;;;;;;;;;;;;;;14.81;73.20;101801.75;5096919;28;20410;-66
2023/06/21 00:46:10;;;;;;;;;;;;;;;14.79;72.61;101806.44;5095650;28;19965;-65
2023/06/21 00:48:36;;;;;;;;;;;;;;;14.78;74.66;101805.59;5095515;28;20388;-64
2023/06/21 00:51:02;;;;;;;;;;;;;;;14.79;73.49;101811.81;5095757;28;20018;-63
2023/06/21 00:53:29;;;;;;;;;;;;;;;14.81;74.50;101807.13;5094497;28;20043;-67
2023/06/21 00:55:55;;;;;;;;;;;;;;;14.79;75.16;101812.66;5095703;28;20010;-67
2023/06/21 00:58:20;;;;;;;;;;;;;;;14.81;75.00;101807.13;5097196;28;19920;-66
2023/06/21 01:00:52;;;;;;;;;;;;;;;14.85;74.81;101803.09;5095640;28;19920;-63
2023/06/21 01:03:20;;;;;;;;;;;;;;;14.90;74.46;101807.97;5095794;28;19966;-65
2023/06/21 01:05:59;;;;;;;;;;;;;;;14.97;73.99;101809.81;5095883;28;19949;-66
2023/06/21 01:08:35;;;;;;;;;;;;;;;15.08;73.27;101808.66;5095560;28;19920;-65
2023/06/21 01:11:18;;;;;;;;;;;;;;;15.19;73.41;101819.06;5095611;28;20369;-66
2023/06/21 01:13:59;;;;;;;;;;;;;;;15.30;72.37;101826.78;5096178;28;19920;-65
2023/06/21 01:16:26;;;;;;;;;;;;;;;15.37;73.56;101826.97;5095348;28;19942;-65
2023/06/21 01:18:51;;;;;;;;;;;;;;;15.39;73.85;101838.38;5094065;28;19920;-66
2023/06/21 01:21:19;;;;;;;;;;;;;;;15.38;74.42;101834.00;5095159;28;19926;-64
2023/06/21 01:24:07;;;;;;;;;;;;;;;15.38;74.34;101834.00;5095352;28;19946;-64
2023/06/21 01:26:35;;;;;;;;;;;;;;;15.37;74.35;101837.69;5094980;28;20457;-64
2023/06/21 01:29:04;;;;;;;;;;;;;;;15.36;74.86;101839.53;5096123;28;19920;-64
2023/06/21 01:31:29;;;;;;;;;;;;;;;15.36;75.10;101838.69;5096899;28;19924;-64
2023/06/21 01:33:55;;;;;;;;;;;;;;;15.34;75.83;101838.03;5094290;28;20280;-63
2023/06/21 01:36:22;;;;;;;;;;;;;;;15.33;75.00;101839.88;5095093;28;19920;-63
2023/06/21 01:38:47;;;;;;;;;;;;;;;15.35;75.47;101834.34;5094852;28;20410;-65
2023/06/21 01:41:12;;;;;;;;;;;;;;;15.37;76.93;101832.31;5094643;28;19920;-63
2023/06/21 01:43:38;;;;;;;;;;;;;;;15.41;76.31;101833.66;5095106;28;19920;-65
2023/06/21 01:46:05;;;;;;;;;;;;;;;15.45;75.29;101835.00;5093551;28;19920;-62
2023/06/21 01:48:33;;;;;;;;;;;;;;;15.50;74.44;101835.34;5093336;28;20422;-63
2023/06/21 01:51:00;;;;;;;;;;;;;;;15.55;74.64;101837.50;5094782;28;19924;-64
2023/06/21 01:53:25;;;;;;;;;;;;;;;15.58;74.75;101835.34;5094619;28;20399;-62
2023/06/21 01:55:52;;;;;;;;;;;;;;;15.63;74.90;101838.38;5094584;28;19927;-63
2023/06/21 01:58:18;;;;;;;;;;;;;;;15.68;74.30;101835.19;5094531;28;19920;-63
2023/06/21 02:00:44;;;;;;;;;;;;;;;15.72;75.01;101836.53;5094564;28;19926;-66
2023/06/21 02:03:10;;;;;;;;;;;;;;;15.80;74.67;101840.03;5094454;28;19920;-66
2023/06/21 02:05:36;;;;;;;;;;;;;;;15.88;74.25;101849.91;5094465;28;19966;-63
2023/06/21 02:08:04;;;;;;;;;;;;;;;15.95;75.91;101844.72;5094202;28;20338;-65
2023/06/21 02:10:30;;;;;;;;;;;;;;;15.95;77.45;101842.88;5094173;28;19919;-66
2023/06/21 02:12:56;;;;;;;;;;;;;;;15.93;78.39;101844.88;5094125;28;20011;-64
2023/06/21 02:15:22;;;;;;;;;;;;;;;15.92;77.16;101847.75;5095381;28;20010;-64
2023/06/21 02:17:48;;;;;;;;;;;;;;;15.93;77.81;101849.44;5094112;28;20398;-65
2023/06/21 02:20:15;;;;;;;;;;;;;;;16.01;76.91;101852.91;5094274;28;19920;-64
2023/06/21 02:22:40;;;;;;;;;;;;;;;16.08;77.07;101848.53;5094167;28;20014;-66
2023/06/21 02:25:06;;;;;;;;;;;;;;;16.07;77.02;101851.38;5094014;28;19958;-66
2023/06/21 02:27:31;;;;;;;;;;;;;;;16.03;76.06;101850.06;5097691;28;19920;-64
2023/06/21 02:29:57;;;;;;;;;;;;;;;16.06;76.39;101852.41;5095082;28;19920;-66
2023/06/21 02:32:22;;;;;;;;;;;;;;;16.15;76.70;101851.34;5093617;28;20334;-65
2023/06/21 02:34:47;;;;;;;;;;;;;;;16.26;75.94;101856.38;5093966;28;20004;-65
2023/06/21 02:37:13;;;;;;;;;;;;;;;16.33;74.51;101857.34;5093861;28;19924;-62
2023/06/21 02:39:38;;;;;;;;;;;;;;;16.42;75.13;101845.56;5093863;28;19920;-63
2023/06/21 02:42:04;;;;;;;;;;;;;;;16.54;74.59;101853.25;5093644;28;19920;-64
2023/06/21 02:44:29;;;;;;;;;;;;;;;16.59;73.95;101859.78;5093853;28;19924;-64
2023/06/21 02:46:56;;;;;;;;;;;;;;;16.64;73.42;101849.31;5093904;28;20382;-65
2023/06/21 02:49:22;;;;;;;;;;;;;;;16.70;74.48;101863.94;5093655;28;20022;-64
2023/06/21 02:51:48;;;;;;;;;;;;;;;16.69;74.19;101851.50;5093617;28;19931;-66
2023/06/21 02:54:15;;;;;;;;;;;;;;;16.63;73.24;101863.78;5092833;28;19920;-66
2023/06/21 02:56:42;;;;;;;;;;;;;;;16.56;73.18;101864.66;5093569;28;20306;-65
2023/06/21 02:59:08;;;;;;;;;;;;;;;16.53;72.71;101867.72;5093383;28;20022;-65
2023/06/21 03:01:33;;;;;;;;;;;;;;;16.59;71.81;101869.69;5093621;28;19942;-64
2023/06/21 03:03:59;;;;;;;;;;;;;;;16.60;72.73;101871.38;5093410;28;19932;-65
2023/06/21 03:06:24;;;;;;;;;;;;;;;16.55;71.85;101866.53;5093249;28;19942;-65
2023/06/21 03:08:51;;;;;;;;;;;;;;;16.54;73.02;101866.69;5093115;28;20065;-63
2023/06/21 03:11:17;;;;;;;;;;;;;;;16.54;72.25;101877.44;5093046;28;19920;-64
2023/06/21 03:13:42;;;;;;;;;;;;;;;16.58;72.35;101873.41;5092932;28;19920;-65
2023/06/21 03:16:07;;;;;;;;;;;;;;;16.68;71.78;101874.03;5093713;28;20011;-65
2023/06/21 03:18:33;;;;;;;;;;;;;;;16.84;71.69;101868.59;5093086;28;20015;-65
2023/06/21 03:21:01;;;;;;;;;;;;;;;16.95;71.58;101876.25;5092915;28;19979;-65
2023/06/21 03:23:27;;;;;;;;;;;;;;;16.97;70.21;101871.53;5092894;28;20023;-65
2023/06/21 03:25:52;;;;;;;;;;;;;;;16.93;69.79;101870.22;5092800;28;19967;-65
2023/06/21 03:28:18;;;;;;;;;;;;;;;16.91;69.88;101872.25;5091307;28;20018;-63
2023/06/21 03:30:43;;;;;;;;;;;;;;;16.94;70.87;101866.50;5092843;28;20284;-65
2023/06/21 03:33:09;;;;;;;;;;;;;;;16.98;70.01;101867.81;5093100;28;19924;-64
2023/06/21 03:35:35;;;;;;;;;;;;;;;16.97;67.08;101865.31;5092756;28;20015;-64
2023/06/21 03:38:00;;;;;;;;;;;;;;;16.92;67.73;101873.91;5093048;28;19963;-64
2023/06/21 03:40:26;;;;;;;;;;;;;;;16.92;67.18;101879.31;5092709;28;19928;-66
2023/06/21 03:42:51;;;;;;;;;;;;;;;16.95;67.63;101887.00;5092572;28;19920;-63
2023/06/21 03:45:16;;;;;;;;;;;;;;;17.03;67.29;101881.56;5092871;28;20431;-64
2023/06/21 03:47:43;;;;;;;;;;;;;;;17.13;66.26;101885.91;5092914;28;19924;-63
2023/06/21 03:50:11;;;;;;;;;;;;;;;17.16;63.13;101890.94;5092515;28;20454;-65
2023/06/21 03:52:37;;;;;;;;;;;;;;;17.14;64.53;101892.97;5092884;28;20410;-65
2023/06/21 03:55:02;;;;;;;;;;;;;;;17.20;64.90;101886.88;5092955;28;19927;-63
2023/06/21 03:57:29;;;;;;;;;;;;;;;17.35;64.83;101887.78;5092305;28;19924;-65
2023/06/21 03:59:54;;;;;;;;;;;;;;;17.49;64.73;101886.97;5092443;28;20401;-62
2023/06/21 04:02:21;;;;;;;;;;;;;;;17.62;64.05;101881.81;5091933;28;20438;-63
2023/06/21 04:04:47;;;;;;;;;;;;;;;17.84;62.12;101890.06;5093828;28;20371;-65
2023/06/21 04:07:12;;;;;;;;;;;;;;;18.18;61.49;101897.66;5096571;28;20402;-64
2023/06/21 04:09:38;;;;;;;;;;;;;;;18.83;58.67;101892.34;5096467;28;19920;-65
2023/06/21 04:12:03;;;;;;;;;;;;;;;19.84;55.49;101885.03;5096286;28;20316;-65
2023/06/21 04:14:29;;;;;;;;;;;;;;;20.26;53.82;101892.22;5096367;28;19977;-64
2023/06/21 04:16:54;;;;;;;;;;;;;;;21.42;49.18;101889.56;5096851;28;19956;-63
2023/06/21 04:19:19;;;;;;;;;;;;;;;22.80;45.88;101891.22;5096372;28;19926;-65
2023/06/21 04:21:44;;;;;;;;;;;;;;;24.08;39.47;101883.66;5096222;28;20354;-65
2023/06/21 04:24:10;;;;;;;;;;;;;;;24.87;36.85;101880.03;5096437;28;19920;-64
2023/06/21 04:26:35;;;;;;;;;;;;;;;25.18;35.62;101883.63;5096294;28;19926;-66
2023/06/21 04:29:01;;;;;;;;;;;;;;;25.28;34.34;101881.13;5096306;28;19927;-62
2023/06/21 04:31:27;;;;;;;;;;;;;;;25.45;35.09;101873.97;5097288;28;20386;-64
2023/06/21 04:33:53;;;;;;;;;;;;;;;25.97;34.43;101878.75;5095748;28;19920;-65
2023/06/21 04:36:18;;;;;;;;;;;;;;;26.38;32.55;101869.59;5096135;28;19919;-63
2023/06/21 04:38:48;;;;;;;;;;;;;;;26.67;32.50;101876.78;5095865;28;19920;-63
2023/06/21 04:41:14;;;;;;;;;;;;;;;26.07;33.14;101868.91;5095837;28;19920;-66
2023/06/21 04:43:41;;;;;;;;;;;;;;;24.57;34.40;101863.63;5096128;28;19924;-64
2023/06/21 04:46:07;;;;;;;;;;;;;;;24.79;34.97;101869.44;5095813;28;20290;-65
2023/06/21 04:48:32;;;;;;;;;;;;;;;25.70;33.13;101873.75;5096516;28;19924;-63
2023/06/21 04:50:58;;;;;;;;;;;;;;;25.42;32.35;101866.22;5096198;28;19970;-64
2023/06/21 04:53:28;;;;;;;;;;;;;;;24.70;35.20;101860.75;5094440;28;20022;-64
2023/06/21 04:55:53;;;;;;;;;;;;;;;24.76;35.82;101863.63;5095679;28;19920;-66
2023/06/21 04:58:19;;;;;;;;;;;;;;;25.59;33.44;101867.19;5095886;28;20346;-65
2023/06/21 05:00:44;;;;;;;;;;;;;;;25.99;31.57;101866.53;5095733;28;19920;-64
2023/06/21 05:03:09;;;;;;;;;;;;;;;25.98;31.50;101864.88;5096104;28;19920;-63
2023/06/21 05:05:35;;;;;;;;;;;;;;;26.02;31.30;101871.53;5095820;28;19920;-69
2023/06/21 05:08:00;;;;;;;;;;;;;;;26.24;30.60;101861.63;5095397;28;19920;-64
2023/06/21 05:10:25;;;;;;;;;;;;;;;26.26;30.82;101866.84;5095300;28;19928;-62
2023/06/21 05:12:50;;;;;;;;;;;;;;;26.36;30.43;101875.31;5095539;28;19927;-65
2023/06/21 05:15:16;;;;;;;;;;;;;;;26.33;30.38;101872.22;5095354;28;19927;-65
2023/06/21 05:17:41;;;;;;;;;;;;;;;26.03;30.76;101873.19;5094450;28;19927;-64
2023/06/21 05:20:08;;;;;;;;;;;;;;;25.69;31.22;101868.53;5095616;28;19920;-66
2023/06/21 05:22:34;;;;;;;;;;;;;;;25.29;31.67;101866.44;5095094;28;19924;-64
2023/06/21 05:25:04;;;;;;;;;;;;;;;24.81;32.27;101864.56;5094972;28;19931;-64
2023/06/21 05:27:29;;;;;;;;;;;;;;;24.43;32.79;101856.69;5095115;28;20465;-65
2023/06/21 05:29:55;;;;;;;;;;;;;;;23.50;33.16;101864.91;5094884;28;19970;-64
2023/06/21 05:32:20;;;;;;;;;;;;;;;22.49;35.44;101864.81;5095379;28;19926;-63
2023/06/21 05:34:46;;;;;;;;;;;;;;;21.87;37.43;101872.47;5098191;28;20288;-64
2023/06/21 05:37:11;;;;;;;;;;;;;;;21.50;37.70;101868.50;5098399;28;19920;-65
2023/06/21 05:39:36;;;;;;;;;;;;;;;21.28;38.79;101876.00;5097897;28;19994;-64
2023/06/21 05:42:02;;;;;;;;;;;;;;;21.12;38.28;101872.81;5095476;28;19964;-64
2023/06/21 05:44:27;;;;;;;;;;;;;;;21.00;38.39;101872.56;5094937;28;19931;-67
2023/06/21 05:46:52;;;;;;;;;;;;;;;20.86;38.45;101877.13;5095034;28;19920;-64
2023/06/21 05:49:18;;;;;;;;;;;;;;;20.67;39.18;101875.16;5094732;28;20279;-64
2023/06/21 05:51:43;;;;;;;;;;;;;;;20.55;40.50;101874.91;5094727;28;20110;-64
2023/06/21 05:54:08;;;;;;;;;;;;;;;20.60;39.88;101880.56;5076246;28;20016;-66
2023/06/21 05:56:37;;;;;;;;;;;;;;;20.71;40.21;101877.25;5093484;28;20536;-68
2023/06/21 05:59:02;;;;;;;;;;;;;;;20.75;39.85;101869.56;5094551;28;20061;-66
2023/06/21 06:01:28;;;;;;;;;;;;;;;20.79;39.59;101878.13;5094482;28;19963;-65
2023/06/21 06:03:53;;;;;;;;;;;;;;;20.92;40.14;101878.16;5094368;28;20274;-64
2023/06/21 06:06:18;;;;;;;;;;;;;;;21.10;39.48;101874.88;5094323;28;20466;-66
2023/06/21 06:08:44;;;;;;;;;;;;;;;21.20;38.72;101870.75;5094084;28;19920;-66
2023/06/21 06:11:09;;;;;;;;;;;;;;;21.23;39.49;101872.19;5094186;28;20403;-66
2023/06/21 06:13:34;;;;;;;;;;;;;;;21.24;38.56;101872.03;5094207;28;19933;-65
2023/06/21 06:16:00;;;;;;;;;;;;;;;21.25;38.66;101873.69;5092736;28;20011;-65
2023/06/21 06:18:26;;;;;;;;;;;;;;;21.15;38.05;101865.09;5094302;28;19923;-64
2023/06/21 06:20:52;;;;;;;;;;;;;;;20.95;38.96;101862.34;5094476;28;19950;-65
2023/06/21 06:23:17;;;;;;;;;;;;;;;20.73;38.53;101858.09;5093812;28;19920;-64
2023/06/21 06:25:42;;;;;;;;;;;;;;;20.68;38.98;101861.44;5127010;27;19920;-64
2023/06/21 06:28:08;;;;;;;;;;;;;;;20.69;38.73;101862.25;5092771;28;19924;-65
2023/06/21 06:30:33;;;;;;;;;;;;;;;20.75;39.22;101866.03;5092857;28;20421;-67
2023/06/21 06:32:58;;;;;;;;;;;;;;;20.77;39.27;101861.25;5093951;28;20507;-67
2023/06/21 06:35:24;;;;;;;;;;;;;;;20.76;38.54;101863.13;5096409;28;19942;-66
2023/06/21 06:37:49;;;;;;;;;;;;;;;20.86;38.88;101860.88;5093758;28;19931;-68
2023/06/21 06:40:14;;;;;;;;;;;;;;;20.92;38.63;101853.81;5093923;28;20423;-65
2023/06/21 06:42:39;;;;;;;;;;;;;;;20.99;38.73;101852.78;5094142;28;19932;-65
2023/06/21 06:45:05;;;;;;;;;;;;;;;21.12;39.16;101851.16;5093969;28;19920;-66
2023/06/21 06:47:31;;;;;;;;;;;;;;;21.10;37.86;101848.63;5093673;28;19981;-66
2023/06/21 06:49:57;;;;;;;;;;;;;;;21.06;37.56;101849.25;5093576;28;20287;-66
2023/06/21 06:52:22;;;;;;;;;;;;;;;21.03;37.89;101845.06;5093734;28;19924;-67
2023/06/21 06:54:48;;;;;;;;;;;;;;;21.09;38.12;101841.53;5093330;28;19946;-64
2023/06/21 06:57:13;;;;;;;;;;;;;;;21.15;37.56;101839.91;5092378;28;19920;-66
2023/06/21 06:59:38;;;;;;;;;;;;;;;21.21;37.80;101839.91;5091988;28;19928;-64
2023/06/21 07:02:04;;;;;;;;;;;;;;;21.16;37.23;101852.41;5093297;28;20302;-65
2023/06/21 07:04:29;;;;;;;;;;;;;;;21.10;37.29;101848.63;5093046;28;20026;-65
2023/06/21 07:06:54;;;;;;;;;;;;;;;21.20;37.60;101849.06;5092824;28;19923;-66
2023/06/21 07:09:20;;;;;;;;;;;;;;;21.41;37.89;101848.09;5093312;28;19931;-67
2023/06/21 07:11:45;;;;;;;;;;;;;;;21.60;35.91;101835.56;5091938;28;19927;-65
2023/06/21 07:14:10;;;;;;;;;;;;;;;21.68;36.91;101838.03;5093181;28;19920;-65
2023/06/21 07:16:40;;;;;;;;;;;;;;;21.67;36.70;101835.53;5092950;28;19920;-65
2023/06/21 07:19:05;;;;;;;;;;;;;;;21.70;36.92;101833.28;5092834;28;19924;-64
2023/06/21 07:21:30;;;;;;;;;;;;;;;21.55;35.69;101836.19;5093278;28;19927;-65
2023/06/21 07:23:56;;;;;;;;;;;;;;;21.45;36.26;101830.38;5093104;28;20428;-66
2023/06/21 07:26:21;;;;;;;;;;;;;;;21.46;36.46;101828.50;5093423;28;20353;-65
2023/06/21 07:28:46;;;;;;;;;;;;;;;21.42;35.14;101833.50;5093579;28;19924;-65
2023/06/21 07:31:12;;;;;;;;;;;;;;;21.36;36.40;101836.19;5094127;28;19920;-66
2023/06/21 07:33:37;;;;;;;;;;;;;;;21.27;35.30;101827.44;5091987;28;20015;-68
2023/06/21 07:36:03;;;;;;;;;;;;;;;21.26;35.77;101825.75;5092674;28;20070;-67
2023/06/21 07:38:28;;;;;;;;;;;;;;;21.21;35.29;101834.47;5093119;28;20374;-66
2023/06/21 07:40:53;;;;;;;;;;;;;;;21.23;36.08;101829.72;5092365;28;19966;-65
2023/06/21 07:43:19;;;;;;;;;;;;;;;21.30;36.83;101830.56;5091545;28;19924;-65
2023/06/21 07:45:44;;;;;;;;;;;;;;;21.39;36.54;101824.91;5092833;28;20355;-67
2023/06/21 07:48:10;;;;;;;;;;;;;;;21.52;36.92;101825.78;5091997;28;19928;-66
2023/06/21 07:50:41;;;;;;;;;;;;;;;21.68;36.97;101823.66;5091848;28;20138;-64
2023/06/21 07:53:06;;;;;;;;;;;;;;;21.76;36.97;101827.00;5094429;28;20311;-63
2023/06/21 07:55:31;;;;;;;;;;;;;;;21.78;36.01;101830.34;5092580;28;20394;-66
2023/06/21 07:57:57;;;;;;;;;;;;;;;21.82;37.08;101831.59;5092697;28;19928;-65
2023/06/21 08:00:22;;;;;;;;;;;;;;;21.82;36.75;101825.31;5092595;28;19927;-66
2023/06/21 08:02:52;;;;;;;;;;;;;;;21.73;36.80;101830.13;5092445;28;20027;-65
2023/06/21 08:05:20;;;;;;;;;;;;;;;21.80;36.89;101828.25;5092395;28;19926;-66
2023/06/21 08:07:45;;;;;;;;;;;;;;;21.72;36.81;101831.19;5094508;28;20322;-66
2023/06/21 08:10:12;;;;;;;;;;;;;;;21.74;37.13;101822.84;5092404;28;19920;-65
2023/06/21 08:12:37;;;;;;;;;;;;;;;21.83;36.74;101827.81;5092665;28;20340;-66
2023/06/21 08:15:02;;;;;;;;;;;;;;;21.92;37.03;101821.13;5092306;28;19920;-64
2023/06/21 08:17:29;;;;;;;;;;;;;;;21.88;36.54;101829.91;5092320;28;19974;-64
2023/06/21 08:19:54;;;;;;;;;;;;;;;21.89;37.10;101826.13;5090944;28;19963;-65
2023/06/21 08:22:20;;;;;;;;;;;;;;;21.92;36.78;101825.72;5091680;28;19920;-65
2023/06/21 08:24:46;;;;;;;;;;;;;;;22.04;36.79;101823.22;5092880;28;20302;-67
2023/06/21 08:27:11;;;;;;;;;;;;;;;22.06;36.71;101823.84;5091023;28;20023;-66
2023/06/21 08:29:37;;;;;;;;;;;;;;;22.06;36.68;101826.56;5092099;28;19931;-66
2023/06/21 08:32:03;;;;;;;;;;;;;;;22.02;36.58;101828.00;5092024;28;19943;-66
2023/06/21 08:34:28;;;;;;;;;;;;;;;22.06;36.87;101826.56;5092233;28;20011;-65
2023/06/21 08:36:54;;;;;;;;;;;;;;;22.13;36.63;101838.22;5093152;28;19967;-64
2023/06/21 08:39:19;;;;;;;;;;;;;;;22.13;36.33;101827.38;5095084;28;20319;-64
2023/06/21 08:41:44;;;;;;;;;;;;;;;22.11;36.68;101824.03;5092090;28;20016;-65
2023/06/21 08:44:10;;;;;;;;;;;;;;;22.06;37.22;101823.84;5092079;28;20382;-65
2023/06/21 08:46:36;;;;;;;;;;;;;;;22.11;37.21;101826.75;5091035;28;19959;-65
2023/06/21 08:49:06;;;;;;;;;;;;;;;22.17;37.40;101821.31;5090705;28;19967;-63
2023/06/21 08:51:35;;;;;;;;;;;;;;;22.24;36.87;101816.69;5092932;28;20406;-69
2023/06/21 08:54:03;;;;;;;;;;;;;;;22.22;36.77;101810.63;5128883;27;19931;-66
2023/06/21 08:56:28;;;;;;;;;;;;;;;22.28;37.14;101822.53;5095961;28;19965;-65
2023/06/21 08:58:59;;;;;;;;;;;;;;;22.38;37.32;101813.94;5096043;28;20006;-66
2023/06/21 09:01:25;;;;;;;;;;;;;;;22.47;37.33;101809.91;5095730;28;20416;-66
2023/06/21 09:03:57;;;;;;;;;;;;;;;22.57;37.12;101813.03;5095691;28;19927;-67
2023/06/21 09:06:24;;;;;;;;;;;;;;;22.65;37.41;101803.78;5096035;28;19920;-65
2023/06/21 09:08:52;;;;;;;;;;;;;;;22.74;37.31;101810.63;5095749;28;19931;-67
2023/06/21 09:11:18;;;;;;;;;;;;;;;22.89;37.12;101797.63;5095840;28;19927;-65
2023/06/21 09:13:44;;;;;;;;;;;;;;;23.03;36.56;101807.31;5095502;28;19920;-66
2023/06/21 09:16:09;;;;;;;;;;;;;;;23.10;36.73;101804.56;5095318;28;20330;-65
2023/06/21 09:18:37;;;;;;;;;;;;;;;23.11;36.95;101804.34;5095553;28;19927;-64
2023/06/21 09:21:02;;;;;;;;;;;;;;;23.08;37.33;101803.94;5095426;28;19926;-67
2023/06/21 09:23:28;;;;;;;;;;;;;;;22.94;36.58;101803.22;5094256;28;20010;-66
2023/06/21 09:25:54;;;;;;;;;;;;;;;22.84;37.68;101797.41;5095409;28;20314;-66
2023/06/21 09:28:19;;;;;;;;;;;;;;;22.88;37.97;101804.09;5095058;28;20431;-66
2023/06/21 09:30:44;;;;;;;;;;;;;;;23.11;36.94;101798.06;5095147;28;19924;-66
2023/06/21 09:33:10;;;;;;;;;;;;;;;23.38;37.40;101799.53;5095285;28;19920;-63
2023/06/21 09:35:38;;;;;;;;;;;;;;;23.52;36.95;101797.53;5095117;28;19964;-65
2023/06/21 09:38:18;;;;;;;;;;;;;;;23.51;36.77;101795.88;5094849;28;20341;-67
2023/06/21 09:40:44;;;;;;;;;;;;;;;23.40;37.12;101791.97;5094848;28;19924;-65
2023/06/21 09:43:09;;;;;;;;;;;;;;;23.24;37.60;101797.16;5094799;28;20343;-65
2023/06/21 09:45:35;;;;;;;;;;;;;;;23.06;37.18;101796.00;5094831;28;19920;-64
2023/06/21 09:48:04;;;;;;;;;;;;;;;23.04;38.09;101792.69;5093246;28;19920;-68
2023/06/21 09:50:35;;;;;;;;;;;;;;;23.14;38.18;101786.78;5094535;28;19938;-63
2023/06/21 09:53:01;;;;;;;;;;;;;;;23.22;38.09;101791.94;5094525;28;19920;-65
2023/06/21 09:55:26;;;;;;;;;;;;;;;23.22;37.86;101782.97;5094574;28;20401;-65
2023/06/21 09:57:52;;;;;;;;;;;;;;;23.18;38.04;101777.97;5094263;28;20446;-67
2023/06/21 10:00:17;;;;;;;;;;;;;;;23.21;38.35;101782.13;5094403;28;20360;-63
2023/06/21 10:02:43;;;;;;;;;;;;;;;23.26;38.21;101778.75;5093833;28;19931;-65
2023/06/21 10:05:18;;;;;;;;;;;;;;;23.26;37.63;101778.75;5094129;28;19955;-65
2023/06/21 10:07:44;;;;;;;;;;;;;;;23.26;37.32;101770.59;5094527;28;19920;-66
2023/06/21 10:10:10;;;;;;;;;;;;;;;23.12;37.42;101776.09;5094087;28;19995;-66
2023/06/21 10:12:35;;;;;;;;;;;;;;;23.11;37.90;101777.16;5094410;28;20430;-66
2023/06/21 10:15:00;;;;;;;;;;;;;;;23.07;38.04;101784.09;5094204;28;19924;-66
2023/06/21 10:17:26;;;;;;;;;;;;;;;22.96;38.57;101773.94;5094116;28;19920;-65
2023/06/21 10:19:53;;;;;;;;;;;;;;;22.90;38.40;101776.72;5093864;28;19980;-64
2023/06/21 10:22:20;;;;;;;;;;;;;;;22.95;38.35;101769.56;5094021;28;19927;-66
2023/06/21 10:24:49;;;;;;;;;;;;;;;23.07;38.89;101770.50;5094042;28;19927;-66
2023/06/21 10:27:15;;;;;;;;;;;;;;;23.15;38.68;101761.28;5093865;28;19920;-67
2023/06/21 10:29:42;;;;;;;;;;;;;;;23.30;38.75;101760.94;5093931;28;19934;-66
2023/06/21 10:32:08;;;;;;;;;;;;;;;23.45;38.55;101762.25;5093137;28;19947;-66
2023/06/21 10:34:52;;;;;;;;;;;;;;;23.56;38.39;101762.59;5094242;28;19924;-64
2023/06/21 10:37:25;;;;;;;;;;;;;;;23.63;38.41;101763.34;5075463;28;19934;-65
2023/06/21 10:39:52;;;;;;;;;;;;;;;23.66;38.14;101752.84;5093886;28;19989;-64
2023/06/21 10:42:19;;;;;;;;;;;;;;;23.74;38.33;101752.59;5096142;28;19943;-67
2023/06/21 10:44:44;;;;;;;;;;;;;;;23.71;38.06;101747.59;5093691;28;19998;-66
2023/06/21 10:47:11;;;;;;;;;;;;;;;23.67;38.09;101746.38;5093487;28;19954;-67
2023/06/21 10:49:38;;;;;;;;;;;;;;;23.71;38.35;101747.59;5094153;28;19924;-66
2023/06/21 10:52:05;;;;;;;;;;;;;;;23.75;37.96;101740.66;5093734;28;19931;-66
2023/06/21 10:54:31;;;;;;;;;;;;;;;23.82;37.95;101745.19;5092504;28;19993;-65
2023/06/21 10:56:56;;;;;;;;;;;;;;;23.78;38.00;101734.75;5092656;28;20390;-67
2023/06/21 10:59:24;;;;;;;;;;;;;;;23.77;38.41;101733.09;5093468;28;19927;-67
2023/06/21 11:01:49;;;;;;;;;;;;;;;23.83;38.26;101742.22;5093430;28;19955;-65
2023/06/21 11:04:15;;;;;;;;;;;;;;;23.95;38.44;101739.56;5093089;28;19966;-66
2023/06/21 11:06:41;;;;;;;;;;;;;;;24.05;38.22;101739.88;5093044;28;20241;-66
2023/06/21 11:09:08;;;;;;;;;;;;;;;24.07;37.33;101737.75;5092992;28;20407;-65
2023/06/21 11:11:36;;;;;;;;;;;;;;;24.04;37.92;101735.50;5093403;28;19943;-65
2023/06/21 11:14:02;;;;;;;;;;;;;;;24.07;38.34;101733.16;5093478;28;19927;-66
2023/06/21 11:16:29;;;;;;;;;;;;;;;24.14;38.45;101733.06;5091677;28;19920;-64
2023/06/21 11:18:59;;;;;;;;;;;;;;;24.19;38.31;101732.38;5093107;28;19920;-66
2023/06/21 11:21:37;;;;;;;;;;;;;;;24.17;38.34;101731.78;5096195;28;19920;-64
2023/06/21 11:24:05;;;;;;;;;;;;;;;24.16;38.37;101724.66;5095889;28;20509;-62
2023/06/21 11:26:50;;;;;;;;;;;;;;;24.19;38.53;101727.75;5094314;28;19958;-64
2023/06/21 11:29:15;;;;;;;;;;;;;;;24.20;37.90;101723.97;5092964;28;20015;-67
2023/06/21 11:31:41;;;;;;;;;;;;;;;24.24;38.45;101730.63;5091427;28;20066;-67
2023/06/21 11:34:07;;;;;;;;;;;;;;;24.25;38.35;101728.72;5093029;28;19927;-67
2023/06/21 11:36:34;;;;;;;;;;;;;;;24.20;38.37;101723.13;5092750;28;19966;-65
2023/06/21 11:39:06;;;;;;;;;;;;;;;24.18;38.27;101719.81;5092402;28;19930;-65
2023/06/21 11:41:43;;;;;;;;;;;;;;;24.22;38.40;101713.69;5091385;28;20010;-68
2023/06/21 11:44:10;;;;;;;;;;;;;;;24.31;38.27;101706.91;5092605;28;20009;-65
2023/06/21 11:46:36;;;;;;;;;;;;;;;24.39;38.00;101708.47;5092822;28;20436;-64
2023/06/21 11:49:02;;;;;;;;;;;;;;;24.44;38.34;101700.44;5092435;28;19928;-66
2023/06/21 11:51:31;;;;;;;;;;;;;;;24.54;38.54;101705.31;5092584;28;19924;-64
2023/06/21 11:53:56;;;;;;;;;;;;;;;24.60;38.16;101694.34;5092475;28;19920;-67
2023/06/21 11:56:22;;;;;;;;;;;;;;;24.62;38.25;101702.28;5092505;28;19920;-64
2023/06/21 11:58:48;;;;;;;;;;;;;;;24.61;37.90;101695.16;5091119;28;19920;-64
2023/06/21 12:01:14;;;;;;;;;;;;;;;24.61;38.44;101687.00;5092752;28;19927;-66
2023/06/21 12:03:39;;;;;;;;;;;;;;;24.59;38.16;101681.78;5092564;28;20022;-66
2023/06/21 12:06:06;;;;;;;;;;;;;;;24.49;38.01;101691.56;5092304;28;20417;-66
2023/06/21 12:08:32;;;;;;;;;;;;;;;24.50;38.22;101685.06;5090784;28;19920;-65
2023/06/21 12:10:59;;;;;;;;;;;;;;;24.54;38.42;101680.81;5092354;28;20001;-65
2023/06/21 12:13:24;;;;;;;;;;;;;;;24.55;38.13;101685.19;5091150;28;19928;-66
2023/06/21 12:15:54;;;;;;;;;;;;;;;24.55;38.55;101679.72;5092361;28;19923;-65
2023/06/21 12:18:20;;;;;;;;;;;;;;;24.63;38.56;101677.53;5092360;28;19927;-66
2023/06/21 12:20:45;;;;;;;;;;;;;;;24.74;38.46;101684.06;5091911;28;19926;-67
2023/06/21 12:23:11;;;;;;;;;;;;;;;24.82;38.54;101680.97;5092269;28;20298;-64
2023/06/21 12:25:43;;;;;;;;;;;;;;;24.91;38.35;101679.59;5091839;28;19920;-64
2023/06/21 12:28:09;;;;;;;;;;;;;;;24.90;37.67;101683.38;5096990;28;19920;-65
2023/06/21 12:30:44;;;;;;;;;;;;;;;24.82;37.67;101674.69;5096181;28;19966;-67